createdAt,value
2018-07-16T00:00:54.822Z,17.20
2018-07-16T00:03:29.381Z,17.20
2018-07-16T00:06:04.297Z,17.10
2018-07-16T00:08:39.150Z,17.10
2018-07-16T00:11:14.115Z,17.10
2018-07-16T00:13:48.905Z,17.10
2018-07-16T00:16:23.648Z,17.10
2018-07-16T00:18:58.789Z,17.10
2018-07-16T00:21:33.893Z,17.00
2018-07-16T00:24:08.358Z,17.00
2018-07-16T00:26:43.411Z,17.00
2018-07-16T00:29:18.221Z,17.00
2018-07-16T00:31:53.001Z,17.00
2018-07-16T00:34:27.874Z,17.00
2018-07-16T00:37:02.593Z,17.00
2018-07-16T00:39:37.025Z,17.00
2018-07-16T00:42:11.842Z,17.00
2018-07-16T00:44:46.922Z,17.00
2018-07-16T00:47:21.227Z,17.00
2018-07-16T00:49:56.465Z,17.00
2018-07-16T00:52:30.826Z,16.90
2018-07-16T00:55:06.208Z,16.90
2018-07-16T00:57:40.665Z,16.90
2018-07-16T01:00:15.178Z,16.80
2018-07-16T01:02:49.903Z,16.80
2018-07-16T01:05:24.648Z,16.80
2018-07-16T01:07:59.485Z,16.70
2018-07-16T01:10:34.205Z,16.70
2018-07-16T01:13:09.083Z,16.70
2018-07-16T01:15:44.053Z,16.70
2018-07-16T01:18:18.810Z,16.60
2018-07-16T01:20:53.708Z,16.60
2018-07-16T01:23:28.493Z,16.50
2018-07-16T01:26:03.117Z,16.50
2018-07-16T01:28:38.021Z,16.50
2018-07-16T01:31:12.700Z,16.50
2018-07-16T01:33:47.832Z,16.50
2018-07-16T01:36:22.948Z,16.50
2018-07-16T01:38:58.234Z,16.50
2018-07-16T01:41:32.544Z,16.50
2018-07-16T01:44:07.370Z,16.50
2018-07-16T01:46:42.334Z,16.50
2018-07-16T01:49:17.081Z,16.50
2018-07-16T01:51:51.792Z,16.50
2018-07-16T01:54:26.283Z,16.50
2018-07-16T01:57:00.993Z,16.50
2018-07-16T01:59:35.757Z,16.50
2018-07-16T02:02:10.873Z,16.50
2018-07-16T02:04:45.198Z,16.50
2018-07-16T02:07:19.927Z,16.50
2018-07-16T02:09:55.066Z,16.50
2018-07-16T02:12:29.502Z,16.50
2018-07-16T02:15:04.270Z,16.50
2018-07-16T02:20:13.758Z,16.50
2018-07-16T02:22:48.546Z,16.50
2018-07-16T02:25:23.601Z,16.50
2018-07-16T02:27:58.019Z,16.50
2018-07-16T02:30:32.386Z,16.50
2018-07-16T02:33:07.970Z,16.50
2018-07-16T02:35:42.808Z,16.60
2018-07-16T02:38:16.886Z,16.60
2018-07-16T02:40:51.550Z,16.60
2018-07-16T02:43:26.451Z,16.60
2018-07-16T02:46:01.063Z,16.60
2018-07-16T02:48:35.677Z,16.60
2018-07-16T02:51:10.818Z,16.60
2018-07-16T02:53:45.183Z,16.60
2018-07-16T02:56:20.054Z,16.60
2018-07-16T02:58:54.837Z,16.60
2018-07-16T03:01:29.621Z,16.60
2018-07-16T03:04:04.222Z,16.60
2018-07-16T03:06:38.938Z,16.60
2018-07-16T03:09:13.802Z,16.60
2018-07-16T03:11:48.934Z,16.50
2018-07-16T03:14:23.135Z,16.50
2018-07-16T03:16:58.172Z,16.50
2018-07-16T03:19:32.551Z,16.50
2018-07-16T03:22:07.224Z,16.50
2018-07-16T03:24:41.726Z,16.50
2018-07-16T03:27:16.994Z,16.40
2018-07-16T03:29:51.211Z,16.40
2018-07-16T03:32:25.886Z,16.40
2018-07-16T03:35:00.661Z,16.40
2018-07-16T03:37:35.279Z,16.30
2018-07-16T03:40:10.047Z,16.30
2018-07-16T03:42:44.945Z,16.30
2018-07-16T03:45:19.753Z,16.30
2018-07-16T03:47:54.483Z,16.30
2018-07-16T03:50:29.384Z,16.30
2018-07-16T03:53:04.162Z,16.30
2018-07-16T03:55:38.858Z,16.30
2018-07-16T03:58:13.610Z,16.30
2018-07-16T04:00:48.513Z,16.30
2018-07-16T04:03:23.469Z,16.30
2018-07-16T04:05:57.840Z,16.40
2018-07-16T04:08:32.718Z,16.40
2018-07-16T04:11:07.529Z,16.50
2018-07-16T04:13:42.337Z,16.50
2018-07-16T04:16:17.162Z,16.60
2018-07-16T04:18:51.721Z,16.70
2018-07-16T04:21:26.436Z,16.80
2018-07-16T04:24:01.331Z,16.90
2018-07-16T04:26:36.146Z,16.90
2018-07-16T04:29:10.922Z,17.00
2018-07-16T04:31:45.616Z,17.00
2018-07-16T04:34:20.372Z,17.20
2018-07-16T04:36:55.134Z,17.20
2018-07-16T04:39:29.953Z,17.30
2018-07-16T04:42:05.101Z,17.40
2018-07-16T04:44:39.954Z,17.40
2018-07-16T04:47:14.523Z,17.50
2018-07-16T04:49:49.541Z,17.50
2018-07-16T04:52:23.997Z,17.50
2018-07-16T04:54:58.586Z,17.50
2018-07-16T04:57:33.558Z,17.50
2018-07-16T05:00:08.475Z,17.40
2018-07-16T05:02:43.214Z,17.40
2018-07-16T05:05:18.079Z,17.30
2018-07-16T05:07:53.454Z,17.30
2018-07-16T05:10:34.576Z,17.20
2018-07-16T05:13:09.686Z,17.10
2018-07-16T05:15:44.552Z,17.00
2018-07-16T05:18:19.446Z,17.00
2018-07-16T05:20:54.311Z,17.00
2018-07-16T05:23:29.261Z,17.00
2018-07-16T05:26:03.738Z,17.00
2018-07-16T05:28:38.768Z,17.00
2018-07-16T05:31:13.076Z,17.00
2018-07-16T05:33:47.861Z,16.90
2018-07-16T05:36:22.548Z,16.90
2018-07-16T05:38:57.296Z,16.90
2018-07-16T05:41:32.253Z,16.90
2018-07-16T05:44:06.701Z,16.90
2018-07-16T05:46:41.400Z,16.90
2018-07-16T05:49:16.665Z,16.90
2018-07-16T05:51:50.774Z,16.90
2018-07-16T05:54:25.744Z,16.90
2018-07-16T05:57:00.325Z,16.90
2018-07-16T05:59:35.256Z,16.90
2018-07-16T06:02:10.033Z,16.90
2018-07-16T06:04:44.820Z,16.90
2018-07-16T06:07:20.222Z,16.90
2018-07-16T06:09:55.177Z,16.90
2018-07-16T06:12:29.499Z,16.90
2018-07-16T06:15:04.711Z,16.90
2018-07-16T06:17:38.989Z,16.90
2018-07-16T06:20:13.753Z,16.90
2018-07-16T06:22:48.746Z,17.00
2018-07-16T06:25:23.596Z,17.00
2018-07-16T06:27:57.889Z,17.10
2018-07-16T06:30:32.895Z,17.20
2018-07-16T06:33:07.977Z,17.30
2018-07-16T06:35:42.673Z,17.30
2018-07-16T06:38:17.439Z,17.40
2018-07-16T06:40:52.298Z,17.50
2018-07-16T06:43:26.830Z,17.60
2018-07-16T06:46:01.560Z,17.80
2018-07-16T06:48:36.176Z,18.20
2018-07-16T06:51:11.108Z,19.20
2018-07-16T06:53:45.593Z,20.00
2018-07-16T06:56:20.341Z,20.30
2018-07-16T06:58:54.929Z,20.50
2018-07-16T07:01:29.974Z,20.50
2018-07-16T07:04:04.286Z,20.50
2018-07-16T07:06:38.903Z,20.40
2018-07-16T07:09:13.618Z,20.30
2018-07-16T07:11:48.876Z,20.20
2018-07-16T07:14:23.277Z,20.20
2018-07-16T07:16:58.266Z,20.10
2018-07-16T07:19:32.717Z,20.10
2018-07-16T07:22:07.815Z,20.00
2018-07-16T07:24:42.034Z,20.00
2018-07-16T07:27:16.993Z,20.00
2018-07-16T07:29:51.607Z,19.90
2018-07-16T07:32:26.412Z,19.90
2018-07-16T07:35:01.983Z,19.90
2018-07-16T07:37:37.267Z,19.90
2018-07-16T07:40:12.094Z,19.80
2018-07-16T07:45:21.433Z,19.80
2018-07-16T07:47:56.147Z,19.80
2018-07-16T07:50:30.987Z,19.80
2018-07-16T07:53:06.081Z,19.80
2018-07-16T07:55:40.507Z,19.90
2018-07-16T07:58:15.235Z,19.90
2018-07-16T08:00:50.134Z,20.10
2018-07-16T08:03:25.053Z,20.30
2018-07-16T08:06:04.792Z,21.00
2018-07-16T08:08:39.519Z,21.30
2018-07-16T08:11:14.663Z,21.60
2018-07-16T08:13:49.361Z,21.80
2018-07-16T08:16:23.822Z,21.90
2018-07-16T08:18:58.652Z,22.10
2018-07-16T08:21:33.436Z,22.40
2018-07-16T08:24:08.193Z,22.90
2018-07-16T08:26:42.922Z,23.10
2018-07-16T08:29:17.652Z,23.70
2018-07-16T08:31:52.298Z,24.00
2018-07-16T08:34:27.118Z,24.40
2018-07-16T08:37:02.158Z,24.50
2018-07-16T08:39:36.382Z,24.70
2018-07-16T08:42:11.017Z,24.70
2018-07-16T08:44:46.141Z,24.90
2018-07-16T08:47:20.852Z,25.40
2018-07-16T08:49:55.794Z,25.80
2018-07-16T08:52:30.068Z,26.00
2018-07-16T08:55:04.768Z,26.20
2018-07-16T08:57:39.259Z,26.20
2018-07-16T09:00:13.981Z,25.90
2018-07-16T09:02:49.209Z,25.80
2018-07-16T09:05:23.338Z,25.80
2018-07-16T09:07:57.868Z,26.20
2018-07-16T09:10:32.394Z,26.50
2018-07-16T09:13:07.137Z,26.70
2018-07-16T09:15:42.004Z,27.10
2018-07-16T09:18:16.436Z,27.30
2018-07-16T09:20:51.120Z,27.50
2018-07-16T09:28:35.035Z,28.40
2018-07-16T09:31:09.946Z,28.40
2018-07-16T09:33:44.886Z,28.60
2018-07-16T09:36:19.766Z,28.70
2018-07-16T09:38:54.460Z,28.90
2018-07-16T09:41:29.130Z,28.50
2018-07-16T09:44:04.278Z,28.30
2018-07-16T09:46:38.688Z,28.40
2018-07-16T09:49:13.608Z,28.10
2018-07-16T09:51:48.474Z,27.60
2018-07-16T09:54:23.288Z,27.10
2018-07-16T09:56:58.222Z,26.90
2018-07-16T09:59:33.059Z,27.10
2018-07-16T10:02:13.594Z,27.40
2018-07-16T10:04:48.536Z,27.80
2018-07-16T10:07:23.211Z,27.90
2018-07-16T10:09:57.997Z,27.80
2018-07-16T10:12:32.507Z,27.70
2018-07-16T10:15:07.223Z,27.50
2018-07-16T10:17:41.822Z,27.50
2018-07-16T10:20:16.553Z,27.70
2018-07-16T10:22:51.046Z,27.80
2018-07-16T10:25:25.976Z,28.00
2018-07-16T10:28:00.644Z,28.30
2018-07-16T10:30:35.542Z,28.50
2018-07-16T10:33:10.285Z,28.40
2018-07-16T10:35:45.686Z,28.60
2018-07-16T10:38:20.432Z,28.70
2018-07-16T10:40:55.301Z,28.70
2018-07-16T10:46:04.816Z,28.80
2018-07-16T10:48:39.487Z,28.80
2018-07-16T10:51:14.814Z,28.90
2018-07-16T10:53:49.613Z,28.90
2018-07-16T10:56:24.245Z,28.90
2018-07-16T10:58:58.766Z,28.90
2018-07-16T11:01:33.440Z,28.90
2018-07-16T11:04:08.576Z,28.80
2018-07-16T11:06:42.955Z,28.80
2018-07-16T11:09:17.562Z,28.70
2018-07-16T11:11:52.295Z,28.60
2018-07-16T11:14:27.079Z,28.40
2018-07-16T11:17:02.164Z,28.20
2018-07-16T11:19:36.696Z,27.80
2018-07-16T11:22:11.252Z,27.40
2018-07-16T11:24:45.795Z,27.10
2018-07-16T11:27:20.341Z,26.70
2018-07-16T11:29:55.216Z,26.50
2018-07-16T11:32:29.691Z,26.40
2018-07-16T11:35:04.815Z,26.40
2018-07-16T11:37:39.268Z,26.40
2018-07-16T11:40:13.955Z,26.40
2018-07-16T11:42:48.669Z,26.40
2018-07-16T11:45:23.502Z,26.40
2018-07-16T11:47:58.201Z,26.40
2018-07-16T11:50:33.097Z,26.40
2018-07-16T11:53:07.854Z,26.20
2018-07-16T11:55:42.707Z,26.10
2018-07-16T11:58:17.672Z,26.00
2018-07-16T12:00:52.739Z,25.80
2018-07-16T12:03:27.415Z,25.70
2018-07-16T12:06:06.570Z,25.60
2018-07-16T12:08:41.222Z,25.60
2018-07-16T12:11:16.427Z,25.50
2018-07-16T12:13:51.237Z,25.40
2018-07-16T12:16:25.760Z,25.30
2018-07-16T12:19:00.964Z,25.30
2018-07-16T12:21:35.774Z,25.40
2018-07-16T12:24:09.927Z,25.50
2018-07-16T12:26:44.939Z,25.50
2018-07-16T12:29:19.830Z,25.40
2018-07-16T12:31:54.406Z,25.40
2018-07-16T12:34:28.876Z,25.30
2018-07-16T12:37:03.648Z,25.20
2018-07-16T12:39:38.550Z,25.10
2018-07-16T12:42:12.782Z,25.00
2018-07-16T12:44:47.374Z,25.00
2018-07-16T12:47:21.967Z,25.00
2018-07-16T12:49:56.621Z,24.90
2018-07-16T12:52:33.456Z,24.80
2018-07-16T12:55:08.225Z,24.80
2018-07-16T12:57:42.830Z,24.80
2018-07-16T13:00:17.459Z,24.90
2018-07-16T13:02:52.483Z,24.80
2018-07-16T13:05:27.295Z,24.80
2018-07-16T13:08:01.956Z,24.80
2018-07-16T13:10:37.641Z,24.80
2018-07-16T13:13:12.765Z,24.80
2018-07-16T13:15:47.559Z,24.80
2018-07-16T13:20:57.075Z,24.70
2018-07-16T13:23:31.678Z,24.70
2018-07-16T13:26:06.405Z,24.60
2018-07-16T13:28:41.304Z,24.60
2018-07-16T13:31:16.151Z,24.60
2018-07-16T13:33:50.825Z,24.60
2018-07-16T13:36:25.707Z,24.70
2018-07-16T13:39:00.386Z,24.70
2018-07-16T13:41:35.744Z,24.70
2018-07-16T13:44:10.183Z,24.80
2018-07-16T13:46:44.877Z,24.80
2018-07-16T13:49:19.494Z,24.80
2018-07-16T13:51:54.161Z,24.80
2018-07-16T13:54:28.882Z,24.80
2018-07-16T13:57:03.584Z,24.90
2018-07-16T13:59:38.332Z,24.90
2018-07-16T14:02:13.528Z,24.90
2018-07-16T14:04:48.045Z,25.00
2018-07-16T14:07:22.422Z,25.10
2018-07-16T14:09:57.120Z,25.10
2018-07-16T14:12:31.868Z,25.10
2018-07-16T14:15:06.889Z,25.20
2018-07-16T14:17:41.345Z,25.30
2018-07-16T14:20:16.307Z,25.20
2018-07-16T14:22:51.049Z,25.20
2018-07-16T14:25:25.792Z,25.20
2018-07-16T14:28:00.606Z,25.20
2018-07-16T14:30:35.253Z,25.20
2018-07-16T14:33:10.214Z,25.20
2018-07-16T14:35:45.035Z,25.20
2018-07-16T14:38:19.487Z,25.20
2018-07-16T14:40:54.311Z,25.20
2018-07-16T14:43:29.090Z,25.20
2018-07-16T14:46:03.979Z,25.20
2018-07-16T14:48:38.516Z,25.20
2018-07-16T14:51:13.689Z,25.20
2018-07-16T14:53:48.414Z,25.10
2018-07-16T14:56:23.012Z,25.10
2018-07-16T14:58:58.990Z,25.00
2018-07-16T15:01:33.572Z,24.90
2018-07-16T15:04:08.192Z,24.80
2018-07-16T15:06:42.600Z,24.70
2018-07-16T15:09:17.725Z,24.60
2018-07-16T15:11:52.005Z,24.50
2018-07-16T15:14:26.664Z,24.40
2018-07-16T15:17:01.993Z,24.20
2018-07-16T15:19:36.466Z,24.10
2018-07-16T15:22:10.844Z,23.90
2018-07-16T15:24:46.085Z,23.50
2018-07-16T15:27:20.560Z,22.80
2018-07-16T15:29:55.302Z,22.10
2018-07-16T15:35:04.711Z,21.30
2018-07-16T15:37:39.851Z,20.80
2018-07-16T15:40:14.210Z,20.60
2018-07-16T15:42:48.819Z,20.30
2018-07-16T15:45:24.006Z,20.10
2018-07-16T15:47:58.163Z,20.00
2018-07-16T15:50:33.124Z,19.90
2018-07-16T15:53:08.186Z,19.80
2018-07-16T15:55:42.674Z,19.80
2018-07-16T15:58:17.415Z,19.80
2018-07-16T16:00:52.415Z,19.80
2018-07-16T16:03:26.913Z,19.80
2018-07-16T16:08:36.612Z,19.90
2018-07-16T16:11:11.652Z,20.00
2018-07-16T16:13:46.005Z,20.20
2018-07-16T16:16:22.012Z,20.30
2018-07-16T16:18:56.666Z,20.50
2018-07-16T16:21:31.370Z,20.50
2018-07-16T16:24:05.894Z,20.60
2018-07-16T16:26:40.484Z,20.70
2018-07-16T16:29:15.550Z,20.80
2018-07-16T16:31:49.942Z,20.90
2018-07-16T16:34:24.700Z,20.90
2018-07-16T16:36:59.421Z,21.00
2018-07-16T16:39:34.030Z,21.00
2018-07-16T16:42:08.979Z,21.00
2018-07-16T16:44:43.542Z,21.00
2018-07-16T16:47:18.332Z,20.90
2018-07-16T16:49:53.133Z,20.90
2018-07-16T16:52:27.644Z,20.80
2018-07-16T16:55:02.732Z,20.80
2018-07-16T16:57:37.245Z,20.80
2018-07-16T17:00:11.989Z,20.80
2018-07-16T17:02:46.705Z,20.80
2018-07-16T17:05:21.718Z,20.80
2018-07-16T17:07:56.252Z,20.80
2018-07-16T17:10:30.805Z,20.70
2018-07-16T17:13:05.808Z,20.70
2018-07-16T17:15:40.297Z,20.70
2018-07-16T17:18:15.543Z,20.70
2018-07-16T17:20:53.061Z,20.70
2018-07-16T17:23:27.892Z,20.80
2018-07-16T17:26:03.670Z,20.70
2018-07-16T17:28:38.436Z,20.80
2018-07-16T17:31:13.123Z,20.80
2018-07-16T17:33:48.680Z,20.70
2018-07-16T17:36:23.615Z,20.80
2018-07-16T17:38:58.526Z,20.80
2018-07-16T17:41:33.335Z,20.80
2018-07-16T17:44:08.197Z,20.80
2018-07-16T17:46:43.027Z,20.80
2018-07-16T17:49:17.993Z,20.80
2018-07-16T17:51:59.667Z,20.80
2018-07-16T17:54:35.497Z,20.80
2018-07-16T17:57:10.211Z,20.70
2018-07-16T17:59:45.095Z,20.70
2018-07-16T18:02:19.901Z,20.70
2018-07-16T18:04:54.719Z,20.60
2018-07-16T18:07:29.895Z,20.60
2018-07-16T18:10:04.414Z,20.50
2018-07-16T18:12:39.154Z,20.50
2018-07-16T18:15:14.002Z,20.40
2018-07-16T18:17:48.968Z,20.40
2018-07-16T18:20:24.480Z,20.30
2018-07-16T18:22:59.206Z,20.30
2018-07-16T18:25:33.847Z,20.20
2018-07-16T18:28:09.072Z,20.20
2018-07-16T18:30:43.409Z,20.10
2018-07-16T18:33:18.781Z,20.10
2018-07-16T18:35:55.512Z,20.10
2018-07-16T18:38:31.925Z,20.00
2018-07-16T18:41:07.483Z,20.00
2018-07-16T18:43:43.372Z,19.90
2018-07-16T18:46:19.020Z,19.90
2018-07-16T18:48:54.391Z,19.80
2018-07-16T18:51:30.519Z,19.80
2018-07-16T18:54:06.314Z,19.70
2018-07-16T18:56:41.866Z,19.70
2018-07-16T18:59:17.522Z,19.60
2018-07-16T19:01:54.340Z,19.60
2018-07-16T19:04:31.454Z,19.50
2018-07-16T19:07:07.674Z,19.40
2018-07-16T19:09:44.538Z,19.40
2018-07-16T19:12:20.429Z,19.40
2018-07-16T19:14:56.431Z,19.30
2018-07-16T19:17:32.936Z,19.30
2018-07-16T19:20:08.315Z,19.20
2018-07-16T19:22:45.242Z,19.20
2018-07-16T19:25:22.802Z,19.10
2018-07-16T19:27:59.844Z,19.00
2018-07-16T19:30:36.170Z,19.00
2018-07-16T19:33:12.434Z,19.00
2018-07-16T19:35:49.713Z,18.90
2018-07-16T19:38:27.746Z,18.90
2018-07-16T19:41:05.677Z,18.90
2018-07-16T19:43:42.470Z,18.90
2018-07-16T19:46:20.632Z,18.80
2018-07-16T19:48:58.326Z,18.80
2018-07-16T19:51:34.313Z,18.70
2018-07-16T19:54:11.550Z,18.70
2018-07-16T19:56:48.434Z,18.70
2018-07-16T19:59:26.749Z,18.70
2018-07-16T20:02:03.266Z,18.60
2018-07-16T20:04:39.767Z,18.60
2018-07-16T20:07:16.937Z,18.60
2018-07-16T20:09:53.248Z,18.60
2018-07-16T20:12:34.453Z,18.50
2018-07-16T20:15:15.186Z,18.50
2018-07-16T20:17:50.827Z,18.50
2018-07-16T20:20:26.791Z,18.50
2018-07-16T20:23:03.328Z,18.50
2018-07-16T20:25:38.117Z,18.40
2018-07-16T20:28:12.690Z,18.40
2018-07-16T20:33:23.231Z,18.40
2018-07-16T20:35:57.633Z,18.40
2018-07-16T20:38:32.590Z,18.30
2018-07-16T20:41:06.816Z,18.40
2018-07-16T20:43:41.625Z,18.30
2018-07-16T20:46:16.665Z,18.30
2018-07-16T20:48:51.070Z,18.30
2018-07-16T20:51:25.840Z,18.30
2018-07-16T20:54:00.818Z,18.30
2018-07-16T20:56:35.348Z,18.30
2018-07-16T20:59:10.257Z,18.20
2018-07-16T21:01:44.859Z,18.20
2018-07-16T21:04:19.619Z,18.10
2018-07-16T21:06:54.224Z,18.10
2018-07-16T21:09:29.147Z,18.10
2018-07-16T21:12:03.944Z,18.10
2018-07-16T21:14:38.756Z,18.00
2018-07-16T21:17:13.392Z,18.00
2018-07-16T21:19:48.024Z,18.00
2018-07-16T21:22:22.686Z,17.90
2018-07-16T21:24:57.489Z,17.90
2018-07-16T21:27:32.458Z,17.90
2018-07-16T21:30:07.145Z,17.90
2018-07-16T21:32:41.910Z,17.80
2018-07-16T21:35:16.674Z,17.80
2018-07-16T21:37:51.505Z,17.80
2018-07-16T21:40:26.601Z,17.80
2018-07-16T21:43:01.329Z,17.80
2018-07-16T21:45:36.139Z,17.80
2018-07-16T21:48:10.921Z,17.70
2018-07-16T21:50:46.221Z,17.70
2018-07-16T21:53:20.754Z,17.70
2018-07-16T21:58:30.568Z,17.70
2018-07-16T22:01:05.359Z,17.60
2018-07-16T22:03:40.111Z,17.60
2018-07-16T22:06:15.041Z,17.60
2018-07-16T22:08:49.341Z,17.60
2018-07-16T22:11:24.043Z,17.50
2018-07-16T22:13:58.960Z,17.50
2018-07-16T22:16:44.936Z,17.50
2018-07-16T22:19:20.012Z,17.50
2018-07-16T22:21:54.747Z,17.40
2018-07-16T22:24:30.192Z,17.40
2018-07-16T22:29:39.256Z,17.40
2018-07-16T22:32:13.927Z,17.30
2018-07-16T22:34:48.812Z,17.30
2018-07-16T22:37:23.307Z,17.30
2018-07-16T22:39:58.003Z,17.30
2018-07-16T22:42:32.700Z,17.30
2018-07-16T22:45:08.277Z,17.30
2018-07-16T22:47:43.060Z,17.20
2018-07-16T22:50:17.668Z,17.20
2018-07-16T22:52:52.793Z,17.20
2018-07-16T22:55:27.805Z,17.20
2018-07-16T22:58:02.786Z,17.20
2018-07-16T23:00:37.722Z,17.20
2018-07-16T23:03:11.940Z,17.20
2018-07-16T23:05:46.828Z,17.10
2018-07-16T23:08:21.533Z,17.10
2018-07-16T23:10:56.261Z,17.10
2018-07-16T23:13:31.308Z,17.10
2018-07-16T23:16:06.212Z,17.10
2018-07-16T23:18:41.201Z,17.10
2018-07-16T23:21:15.648Z,17.00
2018-07-16T23:23:50.306Z,17.00
2018-07-16T23:26:25.174Z,17.00
2018-07-16T23:29:00.162Z,17.00
2018-07-16T23:31:34.693Z,16.90
2018-07-16T23:34:09.738Z,16.90
2018-07-16T23:36:44.364Z,16.90
2018-07-16T23:39:19.107Z,16.90
2018-07-16T23:41:53.783Z,16.90
2018-07-16T23:44:28.474Z,16.90
2018-07-16T23:47:03.112Z,16.80
2018-07-16T23:49:38.104Z,16.80
2018-07-16T23:52:12.956Z,16.80
2018-07-16T23:54:47.748Z,16.80
2018-07-16T23:57:22.663Z,16.80
2018-07-16T23:59:57.875Z,16.70
